Time;durP1;ratioP1;P1;durP2;ratioP2;P2;SDS_P1;SDS_P2;PMS_P1;PMS_P2;Temp;Humidity;BMP_temperature;BMP_pressure;BME280_temperature;BME280_humidity;BME280_pressure;Samples;Min_cycle;Max_cycle;Signal;HPM_P1;HPM_P2
2023/07/08 00:00:47;;;;;;;;;10.67;10.67;;;;;16.80;100.00;100136.97;6310750;20;3510815;-54
2023/07/08 00:03:17;;;;;;;;;13.00;12.00;;;;;16.55;100.00;100138.03;6283970;20;2791918;-52
2023/07/08 00:05:53;;;;;;;;;15.00;14.00;;;;;16.68;100.00;100147.75;6285882;20;2804590;-50
2023/07/08 00:08:21;;;;;;;;;15.50;11.50;;;;;16.55;100.00;100138.03;6313352;20;2797271;-48
2023/07/08 00:10:49;;;;;;;;;12.00;12.00;;;;;16.32;100.00;100129.84;6282047;20;3512853;-51
2023/07/08 00:13:18;;;;;;;;;11.67;11.67;;;;;16.37;100.00;100138.47;6311831;20;3518194;-53
2023/07/08 00:15:47;;;;;;;;;12.00;12.00;;;;;16.56;100.00;100145.16;6313430;20;3506653;-50
2023/07/08 00:18:17;;;;;;;;;14.67;14.33;;;;;16.49;100.00;100144.78;6311601;20;3520144;-52
2023/07/08 00:20:50;;;;;;;;;12.20;9.40;;;;;16.64;100.00;100149.00;6306321;20;2785713;-50
2023/07/08 00:23:21;;;;;;;;;12.00;12.00;;;;;16.77;100.00;100143.50;6283632;20;3395478;-48
2023/07/08 00:25:50;;;;;;;;;15.67;14.00;;;;;16.37;100.00;100140.31;6313371;20;3531506;-55
2023/07/08 00:28:23;;;;;;;;;14.67;13.00;;;;;16.37;100.00;100141.19;6310844;20;3529453;-53
2023/07/08 00:30:52;;;;;;;;;13.00;12.67;;;;;16.57;100.00;100138.78;6313837;20;3519250;-52
2023/07/08 00:33:21;;;;;;;;;13.67;12.00;;;;;16.08;100.00;100137.19;6313170;20;3538194;-50
2023/07/08 00:35:49;;;;;;;;;15.00;14.33;;;;;16.15;100.00;100146.56;6313464;20;3535664;-50
2023/07/08 00:38:28;;;;;;;;;11.67;11.67;;;;;16.18;100.00;100141.78;6284131;20;3521110;-51
2023/07/08 00:41:02;;;;;;;;;13.33;11.33;;;;;16.09;100.00;100139.78;6311128;20;3517928;-51
2023/07/08 00:43:48;;;;;;;;;5.50;5.50;;;;;15.91;100.00;100138.50;6314367;20;2743157;-57
2023/07/08 00:46:35;;;;;;;;;14.67;14.67;;;;;15.91;100.00;100133.94;6279122;20;3521182;-53
2023/07/08 00:49:38;;;;;;;;;14.00;13.50;;;;;15.63;100.00;100131.56;6307952;20;2491955;-51
2023/07/08 00:52:26;;;;;;;;;15.00;13.00;;;;;16.01;100.00;100134.09;6280710;20;3538930;-53
2023/07/08 00:55:09;;;;;;;;;14.67;13.00;;;;;15.88;100.00;100130.59;6279345;20;3520051;-48
2023/07/08 00:57:41;;;;;;;;;14.00;14.00;;;;;16.09;100.00;100128.94;6309469;20;3534766;-56
2023/07/08 01:00:16;;;;;;;;;18.67;13.33;;;;;15.84;100.00;100132.66;6276879;20;3538918;-50
2023/07/08 01:02:55;;;;;;;;;16.00;13.50;;;;;15.61;100.00;100130.81;6275104;20;2491909;-52
2023/07/08 01:05:26;;;;;;;;;14.00;12.00;;;;;15.81;100.00;100127.50;6283281;20;2786936;-52
2023/07/08 01:08:04;;;;;;;;;13.00;13.00;;;;;15.99;100.00;100131.50;6279859;20;2794060;-48
2023/07/08 01:10:44;;;;;;;;;12.00;12.00;;;;;16.05;100.00;100129.31;6280536;20;2796118;-53
2023/07/08 01:13:15;;;;;;;;;15.33;13.67;;;;;16.15;99.55;100130.31;6283413;20;2799735;-54
2023/07/08 01:15:46;;;;;;;;;13.33;11.67;;;;;15.99;100.00;100136.91;6309776;20;3513978;-50
2023/07/08 01:18:20;;;;;;;;;13.33;13.00;;;;;16.04;100.00;100133.00;6308541;20;3528579;-48
2023/07/08 01:20:48;;;;;;;;;14.00;13.67;;;;;15.84;100.00;100124.53;6276654;20;3519095;-48
2023/07/08 01:23:18;;;;;;;;;13.50;12.00;;;;;16.02;100.00;100133.09;6313672;20;2806547;-53
2023/07/08 01:25:47;;;;;;;;;17.00;13.67;;;;;16.01;99.77;100140.38;6275888;20;3535795;-55
2023/07/08 01:28:15;;;;;;;;;11.33;11.00;;;;;15.68;100.00;100130.22;6276546;20;3509680;-52
2023/07/08 01:30:45;;;;;;;;;12.33;12.33;;;;;15.83;100.00;100135.50;6311442;20;3503524;-53
2023/07/08 01:33:21;;;;;;;;;14.50;14.50;;;;;15.86;100.00;100129.84;6311756;20;2812985;-54
2023/07/08 01:35:50;;;;;;;;;16.67;13.67;;;;;15.47;100.00;100130.00;6307781;20;3537873;-50
2023/07/08 01:38:25;;;;;;;;;17.33;14.67;;;;;15.47;100.00;100124.59;6310931;20;3549234;-52
2023/07/08 01:40:56;;;;;;;;;14.33;13.00;;;;;15.39;100.00;100135.13;6276610;20;3524285;-50
2023/07/08 01:43:25;;;;;;;;;15.67;12.33;;;;;15.28;100.00;100137.78;6308906;20;3536722;-50
2023/07/08 01:45:54;;;;;;;;;14.67;14.67;;;;;15.50;100.00;100135.19;6280855;20;2809774;-55
2023/07/08 01:48:24;;;;;;;;;13.33;13.33;;;;;15.42;100.00;100136.75;6307288;20;3527590;-50
2023/07/08 01:51:04;;;;;;;;;15.33;15.33;;;;;15.19;100.00;100133.03;6275714;20;3538855;-54
2023/07/08 01:53:42;;;;;;;;;15.33;12.00;;;;;15.07;100.00;100130.25;6278199;20;3542134;-50
2023/07/08 01:56:13;;;;;;;;;16.00;14.00;;;;;14.93;100.00;100120.44;6275460;20;3540210;-54
2023/07/08 01:58:40;;;;;;;;;14.00;13.50;;;;;14.79;100.00;100117.88;6280497;20;2805456;-53
2023/07/08 02:01:09;;;;;;;;;16.00;15.00;;;;;14.77;100.00;100113.53;6275788;20;3544118;-51
2023/07/08 02:03:36;;;;;;;;;18.00;15.00;;;;;14.75;100.00;100112.81;6274611;20;2487962;-55
2023/07/08 02:06:05;;;;;;;;;11.00;11.00;;;;;14.93;100.00;100109.63;6277382;20;3532573;-56
2023/07/08 02:08:33;;;;;;;;;14.00;13.00;;;;;14.96;100.00;100116.66;6311987;20;3526352;-51
2023/07/08 02:11:02;;;;;;;;;17.00;15.67;;;;;15.01;100.00;100106.38;6308199;20;3555612;-51
2023/07/08 02:13:30;;;;;;;;;16.00;16.00;;;;;15.26;100.00;100115.38;6281618;20;2826303;-54
2023/07/08 02:15:57;;;;;;;;;15.00;14.50;;;;;15.13;100.00;100116.28;6309352;20;2487848;-54
2023/07/08 02:18:25;;;;;;;;;12.00;10.00;;;;;15.14;100.00;100123.44;6283325;20;2809726;-53
2023/07/08 02:20:52;;;;;;;;;14.00;13.50;;;;;15.24;100.00;100114.63;6277275;20;2492182;-54
2023/07/08 02:23:19;;;;;;;;;17.00;14.00;;;;;15.19;100.00;100116.78;6277371;20;2500272;-48
2023/07/08 02:25:52;;;;;;;;;15.00;14.67;;;;;15.37;100.00;100118.13;6281160;20;3537876;-50
2023/07/08 02:28:21;;;;;;;;;16.33;16.33;;;;;15.20;100.00;100116.69;6278604;20;3563993;-53
2023/07/08 02:30:48;;;;;;;;;15.00;12.00;;;;;15.03;100.00;100117.91;6284135;20;2792083;-54
2023/07/08 02:33:19;;;;;;;;;12.00;12.00;;;;;15.35;100.00;100120.97;6278555;20;3523341;-52
2023/07/08 02:35:47;;;;;;;;;12.67;10.67;;;;;15.33;100.00;100124.78;6273897;20;3521103;-51
2023/07/08 02:38:15;;;;;;;;;15.33;15.33;;;;;15.31;100.00;100127.59;6308953;20;3539816;-51
2023/07/08 02:40:44;;;;;;;;;14.67;14.33;;;;;15.36;100.00;100124.53;6277700;20;2811505;-51
2023/07/08 02:43:11;;;;;;;;;16.50;14.50;;;;;15.25;100.00;100125.34;6308415;20;2813919;-53
2023/07/08 02:45:38;;;;;;;;;17.50;15.00;;;;;15.03;100.00;100131.44;6279841;20;2821248;-54
2023/07/08 02:48:06;;;;;;;;;15.00;15.00;;;;;15.21;100.00;100131.94;6277974;20;2491968;-50
2023/07/08 02:50:33;;;;;;;;;16.00;15.50;;;;;15.17;100.00;100124.19;6277845;20;2806704;-51
2023/07/08 02:53:00;;;;;;;;;18.00;13.00;;;;;15.07;100.00;100126.69;6279234;20;2485743;-50
2023/07/08 02:55:28;;;;;;;;;15.00;15.00;;;;;15.07;100.00;100130.25;6276673;20;2491936;-51
2023/07/08 02:57:56;;;;;;;;;16.00;16.00;;;;;15.06;100.00;100131.25;6275144;20;2820100;-51
2023/07/08 03:00:24;;;;;;;;;14.33;14.33;;;;;14.77;100.00;100127.97;6277117;20;3534818;-54
2023/07/08 03:02:52;;;;;;;;;16.00;16.00;;;;;14.61;100.00;100130.88;6280819;20;2823414;-49
2023/07/08 03:05:19;;;;;;;;;14.50;13.00;;;;;14.70;100.00;100124.81;6309227;20;2500884;-48
2023/07/08 03:07:47;;;;;;;;;14.00;14.00;;;;;14.66;100.00;100138.66;6276161;20;2492050;-52
2023/07/08 03:10:14;;;;;;;;;16.00;16.00;;;;;14.70;100.00;100140.16;6276592;20;2494100;-53
2023/07/08 03:12:43;;;;;;;;;18.00;18.00;;;;;14.43;100.00;100142.97;6276784;20;2825418;-52
2023/07/08 03:15:11;;;;;;;;;17.33;16.00;;;;;14.64;100.00;100146.88;6275915;20;3564962;-53
2023/07/08 03:17:38;;;;;;;;;16.00;16.00;;;;;14.89;100.00;100139.72;6277330;20;2489859;-53
2023/07/08 03:20:06;;;;;;;;;16.00;15.00;;;;;14.97;100.00;100140.00;6282691;20;2487783;-55
2023/07/08 03:22:34;;;;;;;;;16.00;16.00;;;;;15.11;100.00;100145.28;6281299;20;2829460;-54
2023/07/08 03:25:03;;;;;;;;;17.50;16.00;;;;;15.25;100.00;100146.13;6281690;20;2825825;-49
2023/07/08 03:27:31;;;;;;;;;18.50;15.50;;;;;15.38;100.00;100146.94;6277203;20;2826293;-55
2023/07/08 03:29:59;;;;;;;;;13.33;12.33;;;;;15.48;100.00;100142.56;6280861;20;3519138;-50
2023/07/08 03:32:27;;;;;;;;;17.00;15.00;;;;;15.59;99.47;100149.88;6280487;20;2819141;-51
2023/07/08 03:34:55;;;;;;;;;15.33;14.00;;;;;15.66;99.55;100147.56;6280024;20;3544077;-53
2023/07/08 03:37:23;;;;;;;;;17.00;16.50;;;;;15.65;99.27;100152.13;6280815;20;2487817;-48
2023/07/08 03:39:50;;;;;;;;;15.00;15.00;;;;;15.79;98.89;100145.69;6282687;20;2491964;-51
2023/07/08 03:42:18;;;;;;;;;17.67;13.67;;;;;15.90;98.21;100156.56;6288224;20;2817000;-51
2023/07/08 03:44:49;;;;;;;;;16.00;16.00;;;;;15.88;98.36;100150.44;6312361;20;3548316;-52
2023/07/08 03:47:16;;;;;;;;;15.00;15.00;;;;;15.92;99.25;100156.47;6280654;20;2815006;-50
2023/07/08 03:49:45;;;;;;;;;17.00;17.00;;;;;16.00;98.38;100157.59;6282166;20;2832534;-54
2023/07/08 03:52:17;;;;;;;;;18.50;18.50;;;;;15.92;99.16;100168.16;6280354;20;2835840;-49
2023/07/08 03:54:46;;;;;;;;;17.50;14.50;;;;;16.03;99.20;100159.19;6282304;20;2814846;-52
2023/07/08 03:57:14;;;;;;;;;16.00;15.00;;;;;16.24;97.69;100162.09;6277049;20;3546152;-50
2023/07/08 03:59:43;;;;;;;;;14.67;14.67;;;;;16.26;97.16;100159.28;6284425;20;3538908;-50
2023/07/08 04:02:11;;;;;;;;;17.00;15.50;;;;;16.31;96.86;100165.22;6282824;20;2483614;-53
2023/07/08 04:04:39;;;;;;;;;14.00;14.00;;;;;16.56;95.20;100161.41;6280075;20;3518113;-49
2023/07/08 04:07:07;;;;;;;;;14.00;14.00;;;;;16.62;94.89;100171.81;6309799;20;2491949;-51
2023/07/08 04:09:35;;;;;;;;;15.00;15.00;;;;;16.69;94.80;100167.59;6282569;20;3537801;-53
2023/07/08 04:12:04;;;;;;;;;12.00;12.00;;;;;16.70;94.22;100169.34;6280879;20;3527497;-49
2023/07/08 04:14:33;;;;;;;;;15.00;15.00;;;;;16.93;93.37;100172.97;6279156;20;2699265;-52
2023/07/08 04:17:01;;;;;;;;;13.33;12.00;;;;;17.08;93.04;100171.72;6309347;20;3521200;-55
2023/07/08 04:19:29;;;;;;;;;10.00;10.00;;;;;17.30;91.72;100176.28;6277890;20;3524232;-52
2023/07/08 04:21:57;;;;;;;;;12.00;12.00;;;;;17.59;90.40;100173.00;6311222;20;3522554;-54
2023/07/08 04:24:25;;;;;;;;;10.00;10.00;;;;;17.51;90.19;100165.50;6281767;20;2776420;-53
2023/07/08 04:26:54;;;;;;;;;12.67;12.67;;;;;17.53;90.23;100168.94;6313687;20;3532578;-52
2023/07/08 04:29:23;;;;;;;;;13.00;12.00;;;;;17.41;92.57;100169.97;6285156;20;2805506;-55
2023/07/08 04:31:51;;;;;;;;;15.67;15.00;;;;;17.68;89.24;100166.78;6277459;20;3541924;-53
2023/07/08 04:34:20;;;;;;;;;14.50;11.50;;;;;17.81;88.92;100171.25;6285032;20;2792078;-49
2023/07/08 04:36:47;;;;;;;;;13.00;13.00;;;;;17.92;86.71;100168.47;6283230;20;2802522;-54
2023/07/08 04:39:14;;;;;;;;;16.00;13.00;;;;;18.00;86.72;100171.41;6286968;20;2801351;-53
2023/07/08 04:41:43;;;;;;;;;12.50;12.50;;;;;18.13;86.25;100174.81;6280269;20;2806556;-53
2023/07/08 04:44:13;;;;;;;;;13.33;11.00;;;;;18.28;86.34;100171.78;6281298;20;3513836;-51
2023/07/08 04:46:47;;;;;;;;;10.67;10.67;;;;;18.46;86.08;100172.91;6280494;20;2807625;-53
2023/07/08 04:49:15;;;;;;;;;13.00;12.00;;;;;18.74;85.27;100176.78;6311964;20;2805656;-51
2023/07/08 04:51:44;;;;;;;;;12.67;12.67;;;;;18.70;85.32;100174.47;6309648;20;3521249;-48
2023/07/08 04:54:12;;;;;;;;;14.00;13.00;;;;;18.69;85.67;100175.47;6308692;20;3532741;-51
2023/07/08 04:56:47;;;;;;;;;13.67;12.00;;;;;18.70;85.67;100179.91;6282705;20;2807580;-50
2023/07/08 04:59:21;;;;;;;;;12.00;10.00;;;;;18.92;84.93;100179.75;6314786;20;2790966;-51
2023/07/08 05:01:50;;;;;;;;;10.33;10.33;;;;;19.08;83.02;100180.13;6278965;20;3514952;-55
2023/07/08 05:04:21;;;;;;;;;13.00;11.67;;;;;18.96;84.45;100181.22;6312814;20;3507544;-53
2023/07/08 05:06:50;;;;;;;;;13.00;13.00;;;;;19.32;83.12;100189.81;6281810;20;2802781;-51
2023/07/08 05:09:18;;;;;;;;;14.67;13.00;;;;;19.71;80.72;100187.22;6310426;20;3525379;-54
2023/07/08 05:11:46;;;;;;;;;17.00;13.00;;;;;19.94;79.93;100193.28;6277850;20;3413940;-54
2023/07/08 05:14:14;;;;;;;;;11.00;10.33;;;;;20.03;80.31;100194.28;6308304;20;3510852;-51
2023/07/08 05:16:42;;;;;;;;;15.67;14.33;;;;;20.43;78.33;100205.03;6280752;20;3546110;-53
2023/07/08 05:19:11;;;;;;;;;12.00;12.00;;;;;20.38;79.12;100199.16;6311240;20;3518159;-50
2023/07/08 05:21:39;;;;;;;;;13.33;12.67;;;;;20.70;78.11;100207.03;6310544;20;3522145;-53
2023/07/08 05:24:08;;;;;;;;;10.67;10.67;;;;;20.83;76.39;100204.84;6277417;20;3512746;-51
2023/07/08 05:26:36;;;;;;;;;11.00;9.67;;;;;21.09;73.76;100203.31;6281962;20;2783835;-48
2023/07/08 05:29:05;;;;;;;;;12.00;12.00;;;;;21.22;75.56;100202.00;6308471;20;3511765;-54
2023/07/08 05:31:34;;;;;;;;;11.00;11.00;;;;;21.51;72.46;100205.59;6294396;20;3506585;-53
2023/07/08 05:34:14;;;;;;;;;9.00;9.00;;;;;21.77;71.79;100214.78;6304997;20;2766945;-54
2023/07/08 05:36:43;;;;;;;;;12.67;12.67;;;;;21.85;72.17;100219.50;6305062;20;3522285;-54
2023/07/08 05:39:12;;;;;;;;;10.67;10.33;;;;;21.98;71.31;100213.66;6304558;20;3489951;-52
2023/07/08 05:41:40;;;;;;;;;11.33;11.33;;;;;22.12;71.09;100215.84;6304925;20;3532583;-54
2023/07/08 05:44:08;;;;;;;;;11.67;11.67;;;;;22.20;70.74;100217.84;6275536;20;3520051;-54
2023/07/08 05:46:37;;;;;;;;;12.00;12.00;;;;;22.28;70.28;100216.03;6308205;20;2483613;-53
2023/07/08 05:49:05;;;;;;;;;10.00;10.00;;;;;22.17;67.75;100221.72;6305055;20;3515936;-54
2023/07/08 05:51:36;;;;;;;;;13.00;12.00;;;;;22.60;68.00;100216.47;6278435;20;2789968;-52
2023/07/08 05:54:04;;;;;;;;;9.33;9.33;;;;;22.58;66.69;100224.84;6306760;20;3482599;-55
2023/07/08 05:56:32;;;;;;;;;12.00;11.00;;;;;22.59;63.79;100223.81;6308663;20;2789880;-55
2023/07/08 05:59:00;;;;;;;;;10.00;10.00;;;;;22.71;64.40;100218.94;6306258;20;3502360;-55
2023/07/08 06:01:30;;;;;;;;;10.40;9.80;;;;;23.03;64.48;100221.06;6328252;20;2773220;-55
2023/07/08 06:03:59;;;;;;;;;11.00;10.33;;;;;23.17;63.04;100227.81;6280449;20;2789896;-53
2023/07/08 06:06:28;;;;;;;;;13.67;12.67;;;;;23.23;63.28;100222.56;6306188;20;3519150;-52
2023/07/08 06:08:57;;;;;;;;;10.00;10.00;;;;;23.20;62.81;100224.78;6305664;20;3504449;-51
2023/07/08 06:11:25;;;;;;;;;10.67;9.00;;;;;23.18;61.87;100235.91;6310845;20;2763879;-54
2023/07/08 06:13:53;;;;;;;;;12.33;9.67;;;;;23.31;58.59;100235.44;6302305;20;3509779;-51
2023/07/08 06:16:21;;;;;;;;;11.00;11.00;;;;;23.22;59.26;100219.97;6302527;20;3522233;-55
2023/07/08 06:19:07;;;;;;;;;11.67;11.67;;;;;23.19;59.42;100226.63;6280776;20;2781535;-53
2023/07/08 06:21:35;;;;;;;;;14.00;11.67;;;;;23.48;59.45;100227.31;6305719;20;3514911;-53
2023/07/08 06:24:04;;;;;;;;;8.67;8.67;;;;;23.64;56.81;100236.47;6315394;20;2750354;-54
2023/07/08 06:26:32;;;;;;;;;12.33;11.67;;;;;23.83;57.61;100232.63;6307358;20;2796635;-54
2023/07/08 06:29:00;;;;;;;;;9.67;9.67;;;;;24.04;57.83;100239.50;6310329;20;2767991;-51
2023/07/08 06:31:29;;;;;;;;;9.00;9.00;;;;;24.39;54.04;100240.28;6303609;20;2757633;-53
2023/07/08 06:33:58;;;;;;;;;8.67;8.67;;;;;24.28;55.15;100249.69;6306545;20;2759656;-51
2023/07/08 06:36:26;;;;;;;;;8.67;8.67;;;;;24.70;53.10;100246.81;6312622;20;2745136;-50
2023/07/08 06:38:54;;;;;;;;;10.67;9.00;;;;;25.09;51.50;100254.34;6302946;20;2762921;-55
2023/07/08 06:41:22;;;;;;;;;11.00;9.33;;;;;24.96;52.55;100251.25;6302824;20;3502717;-53
2023/07/08 06:43:50;;;;;;;;;8.33;8.33;;;;;25.25;51.25;100250.72;6303928;20;3465878;-55
2023/07/08 06:46:19;;;;;;;;;10.00;10.00;;;;;25.42;51.47;100251.53;6305631;20;3505586;-55
2023/07/08 06:48:47;;;;;;;;;10.67;9.67;;;;;25.94;49.79;100251.00;6305372;20;3504430;-55
2023/07/08 06:51:15;;;;;;;;;10.00;10.00;;;;;26.45;47.61;100256.84;6307496;20;3503450;-56
2023/07/08 06:53:43;;;;;;;;;10.00;10.00;;;;;26.88;47.67;100240.69;6310472;20;2792047;-59
2023/07/08 06:56:12;;;;;;;;;8.67;8.67;;;;;26.81;45.42;100244.38;6309893;20;2750334;-57
2023/07/08 06:58:41;;;;;;;;;8.40;8.40;;;;;27.18;45.99;100240.75;6334935;20;2739899;-57
2023/07/08 07:01:09;;;;;;;;;9.00;9.00;;;;;27.25;45.54;100240.81;6279760;20;2752390;-54
2023/07/08 07:03:38;;;;;;;;;10.00;8.00;;;;;27.20;44.71;100238.66;6305350;20;3492963;-54
2023/07/08 07:06:06;;;;;;;;;10.33;9.33;;;;;27.50;43.74;100239.50;6317358;20;2764904;-57
2023/07/08 07:08:34;;;;;;;;;9.00;9.00;;;;;27.45;44.46;100241.13;6311455;20;2752384;-56
2023/07/08 07:11:02;;;;;;;;;8.67;8.67;;;;;28.00;44.16;100245.25;6317269;20;2750287;-49
2023/07/08 07:13:30;;;;;;;;;9.33;7.67;;;;;27.97;43.56;100252.03;6307954;20;3473268;-52
2023/07/08 07:15:58;;;;;;;;;8.00;8.00;;;;;27.73;45.31;100253.19;6306441;20;2748210;-58
2023/07/08 07:18:26;;;;;;;;;9.00;9.00;;;;;27.81;42.99;100256.94;6315913;20;2754568;-52
2023/07/08 07:20:55;;;;;;;;;6.00;5.00;;;;;28.18;42.07;100242.06;6335771;20;2742419;-54
2023/07/08 07:23:24;;;;;;;;;9.33;7.33;;;;;28.14;42.48;100247.13;6278373;20;2755608;-57
2023/07/08 07:25:52;;;;;;;;;9.67;7.00;;;;;28.39;40.85;100252.28;6309456;20;3474394;-58
2023/07/08 07:28:20;;;;;;;;;8.00;8.00;;;;;28.17;40.95;100252.28;6309704;20;2752464;-56
2023/07/08 07:30:57;;;;;;;;;7.67;7.67;;;;;28.26;40.69;100252.16;6311350;20;2744046;-56
2023/07/08 07:33:26;;;;;;;;;7.67;7.67;;;;;28.58;42.89;100248.03;6307664;20;2730546;-53
2023/07/08 07:35:54;;;;;;;;;11.33;8.33;;;;;28.58;42.00;100248.88;6310669;20;2777464;-50
2023/07/08 07:38:28;;;;;;;;;6.67;6.67;;;;;28.40;40.82;100253.97;6315518;20;2744022;-55
2023/07/08 07:40:56;;;;;;;;;8.00;8.00;;;;;28.48;40.39;100248.34;6309801;20;2748275;-56
2023/07/08 07:43:24;;;;;;;;;7.00;7.00;;;;;28.41;42.44;100250.16;6306560;20;3459679;-54
2023/07/08 07:45:52;;;;;;;;;10.00;8.00;;;;;28.66;39.98;100240.44;6318931;20;2754855;-55
2023/07/08 07:48:21;;;;;;;;;10.33;9.00;;;;;28.90;39.93;100246.59;6318108;20;2762819;-57
2023/07/08 07:50:51;;;;;;;;;8.00;7.33;;;;;28.84;41.81;100241.88;6306116;20;3450272;-54
2023/07/08 07:53:19;;;;;;;;;8.00;8.00;;;;;29.55;39.80;100252.81;6309538;20;2746116;-54
2023/07/08 07:55:47;;;;;;;;;10.00;8.33;;;;;28.92;39.88;100241.75;6307153;20;3482680;-52
2023/07/08 07:58:16;;;;;;;;;10.67;9.00;;;;;29.05;38.14;100244.63;6308753;20;3492461;-50
2023/07/08 08:00:45;;;;;;;;;7.00;7.00;;;;;29.09;38.63;100239.53;6308432;20;2748274;-52
2023/07/08 08:03:16;;;;;;;;;10.00;8.00;;;;;29.13;40.73;100243.63;6307260;20;2775328;-57
2023/07/08 08:05:48;;;;;;;;;7.00;7.00;;;;;29.17;40.17;100244.06;6311413;20;2756605;-56
2023/07/08 08:08:16;;;;;;;;;10.00;8.33;;;;;29.26;39.85;100246.47;6305911;20;3490341;-55
2023/07/08 08:10:45;;;;;;;;;10.00;10.00;;;;;29.54;38.66;100248.34;6316291;20;2779482;-55
2023/07/08 08:13:13;;;;;;;;;10.67;9.00;;;;;28.99;39.12;100234.34;6309341;20;2483611;-53
2023/07/08 08:15:41;;;;;;;;;13.33;11.00;;;;;29.03;37.69;100235.66;6313143;20;2793994;-53
2023/07/08 08:18:09;;;;;;;;;9.67;8.00;;;;;29.40;37.59;100241.88;6306755;20;2747169;-55
2023/07/08 08:20:39;;;;;;;;;11.33;9.33;;;;;29.61;38.65;100242.84;6306710;20;3505510;-56
2023/07/08 08:23:07;;;;;;;;;12.00;10.33;;;;;29.03;37.54;100229.28;6308651;20;3508649;-54
2023/07/08 08:25:36;;;;;;;;;9.00;9.00;;;;;29.49;38.61;100239.78;6278772;20;2755650;-54
2023/07/08 08:28:04;;;;;;;;;10.00;10.00;;;;;29.42;40.57;100231.47;6305211;20;3518006;-53
2023/07/08 08:30:34;;;;;;;;;8.67;8.67;;;;;29.46;38.06;100240.19;6312425;20;2748224;-56
2023/07/08 08:33:03;;;;;;;;;9.33;9.33;;;;;29.57;36.83;100236.00;6310667;20;2773322;-56
2023/07/08 08:35:31;;;;;;;;;11.00;10.00;;;;;28.74;38.95;100230.31;6306440;20;3513923;-52
2023/07/08 08:37:59;;;;;;;;;9.67;9.67;;;;;28.65;38.43;100227.69;6279043;20;2779556;-56
2023/07/08 08:40:27;;;;;;;;;10.00;10.00;;;;;29.26;38.93;100229.88;6308584;20;3504602;-56
2023/07/08 08:43:04;;;;;;;;;9.67;9.00;;;;;28.93;38.58;100226.84;6301603;20;3471261;-51
2023/07/08 08:45:46;;;;;;;;;12.00;11.00;;;;;29.66;37.39;100237.59;6303247;20;3512909;-54
2023/07/08 08:48:20;;;;;;;;;10.33;10.33;;;;;29.54;37.16;100232.63;6314787;20;2789940;-54
2023/07/08 08:51:12;;;;;;;;;7.00;7.00;;;;;29.56;38.67;100228.78;6311745;20;2748260;-50
2023/07/08 08:53:41;;;;;;;;;9.00;8.00;;;;;29.79;36.58;100229.34;6302646;20;3471227;-54
2023/07/08 08:56:23;;;;;;;;;9.33;9.33;;;;;29.74;36.99;100229.09;6301604;20;2758741;-51
2023/07/08 08:59:27;;;;;;;;;10.33;10.33;;;;;29.36;37.48;100223.13;6313322;20;3522214;-56
2023/07/08 09:01:56;;;;;;;;;9.67;9.67;;;;;29.53;37.75;100228.13;6305263;20;3492952;-56
2023/07/08 09:04:36;;;;;;;;;7.00;7.00;;;;;30.05;36.96;100225.81;6313905;20;2748249;-55
2023/07/08 09:07:16;;;;;;;;;9.00;9.00;;;;;29.68;38.14;100219.72;6311798;20;2758721;-53
2023/07/08 09:10:19;;;;;;;;;9.00;9.00;;;;;30.01;36.24;100220.88;6314832;20;2771109;-54
2023/07/08 09:12:51;;;;;;;;;10.33;8.33;;;;;29.27;35.38;100225.19;6304399;20;3490926;-52
2023/07/08 09:15:20;;;;;;;;;8.33;7.67;;;;;29.87;35.78;100226.38;6301881;20;2750380;-54
2023/07/08 09:17:50;;;;;;;;;7.50;7.50;;;;;29.87;36.64;100220.00;6305367;20;2745113;-50
2023/07/08 09:20:28;;;;;;;;;7.00;6.67;;;;;30.22;35.71;100225.41;6312315;20;2747280;-55
2023/07/08 09:23:11;;;;;;;;;11.00;8.00;;;;;30.11;33.40;100224.13;6306518;20;2773244;-56
2023/07/08 09:25:44;;;;;;;;;8.00;8.00;;;;;30.78;33.45;100228.72;6309757;20;2747289;-56
2023/07/08 09:28:14;;;;;;;;;9.33;9.33;;;;;30.32;32.48;100221.22;6305516;20;2773216;-49
2023/07/08 09:30:49;;;;;;;;;8.00;8.00;;;;;30.35;32.38;100211.63;6309027;20;2746129;-56
2023/07/08 09:33:17;;;;;;;;;7.33;7.33;;;;;30.52;35.23;100209.31;6305850;20;2750377;-51
2023/07/08 09:35:47;;;;;;;;;7.33;7.33;;;;;29.60;34.15;100219.00;6304505;20;2748331;-56
2023/07/08 09:38:21;;;;;;;;;8.00;8.00;;;;;29.76;34.03;100218.69;6309019;20;2750315;-58
2023/07/08 09:40:56;;;;;;;;;10.00;7.00;;;;;30.12;34.62;100223.03;6314234;20;2770043;-56
2023/07/08 09:43:37;;;;;;;;;8.67;7.33;;;;;29.44;34.01;100211.91;6304628;20;2761864;-51
2023/07/08 09:46:12;;;;;;;;;9.33;9.33;;;;;28.40;35.22;100202.34;6303052;20;3484863;-55
2023/07/08 09:48:40;;;;;;;;;9.67;9.00;;;;;29.03;34.95;100201.63;6314701;20;2770053;-53
2023/07/08 09:51:09;;;;;;;;;8.67;8.67;;;;;28.85;34.71;100204.88;6303681;20;3459126;-53
2023/07/08 09:53:37;;;;;;;;;9.00;9.00;;;;;29.77;34.47;100220.38;6301647;20;2746238;-56
2023/07/08 09:56:08;;;;;;;;;8.00;7.00;;;;;30.28;32.97;100217.16;6303688;20;2743204;-55
2023/07/08 09:58:44;;;;;;;;;11.67;10.00;;;;;31.00;33.30;100220.22;6302617;20;3502399;-56
2023/07/08 10:01:22;;;;;;;;;10.00;9.00;;;;;30.48;33.69;100208.88;6302480;20;2776332;-56
2023/07/08 10:03:50;;;;;;;;;12.00;11.00;;;;;30.02;33.53;100214.28;6303708;20;3523285;-56
2023/07/08 10:06:28;;;;;;;;;9.00;9.00;;;;;29.86;32.11;100213.63;6285441;20;2747198;-53
2023/07/08 10:09:04;;;;;;;;;13.00;11.00;;;;;29.72;34.11;100211.84;6303895;20;2782656;-54
2023/07/08 10:11:41;;;;;;;;;8.00;8.00;;;;;30.52;32.55;100217.63;6314072;20;2748311;-53
2023/07/08 10:14:38;;;;;;;;;7.67;6.00;;;;;30.04;34.17;100206.63;6302898;20;2742185;-56
2023/07/08 10:17:15;;;;;;;;;9.67;9.67;;;;;30.03;32.31;100200.22;6303754;20;3497150;-53
2023/07/08 10:19:43;;;;;;;;;7.67;7.67;;;;;30.21;34.23;100199.63;6312541;20;2752469;-51
2023/07/08 10:22:30;;;;;;;;;9.00;9.00;;;;;30.07;34.40;100201.53;6306117;20;3478528;-53
2023/07/08 10:25:27;;;;;;;;;10.33;8.33;;;;;30.52;34.63;100195.47;6306212;20;3492206;-53
2023/07/08 10:28:27;;;;;;;;;9.67;9.67;;;;;31.13;33.17;100198.00;6305674;20;2769095;-53
2023/07/08 10:31:14;;;;;;;;;8.33;8.33;;;;;30.35;35.06;100195.84;6304078;20;3470036;-54
2023/07/08 10:34:11;;;;;;;;;12.00;10.00;;;;;30.44;32.27;100187.31;6307678;20;2483630;-48
2023/07/08 10:37:20;;;;;;;;;8.00;8.00;;;;;30.68;33.52;100192.25;6313522;20;2746156;-50
2023/07/08 10:40:10;;;;;;;;;7.67;7.67;;;;;30.75;33.27;100184.75;6302484;20;2740981;-46
2023/07/08 10:43:28;;;;;;;;;9.00;9.00;;;;;31.05;32.89;100182.44;6303861;20;2745813;-54
2023/07/08 10:46:39;;;;;;;;;8.67;8.67;;;;;30.80;32.29;100175.81;6299969;20;2742997;-55
2023/07/08 10:49:43;;;;;;;;;10.00;10.00;;;;;31.08;33.15;100170.03;6299082;20;3514883;-52
2023/07/08 10:52:38;;;;;;;;;12.50;12.50;;;;;30.80;31.74;100171.09;6298897;20;2795092;-55
2023/07/08 10:55:38;;;;;;;;;8.00;8.00;;;;;30.90;33.74;100172.63;6269224;20;3463854;-52
2023/07/08 10:58:27;;;;;;;;;9.33;9.33;;;;;30.38;32.49;100166.84;6302690;20;2484522;-52
2023/07/08 11:01:01;;;;;;;;;13.00;11.00;;;;;30.33;33.78;100170.28;6302336;20;3509317;-54
2023/07/08 11:04:01;;;;;;;;;10.00;10.00;;;;;30.16;33.69;100158.72;6303969;20;3505541;-51
2023/07/08 11:06:45;;;;;;;;;13.33;10.00;;;;;30.50;33.85;100158.78;6272404;20;3510687;-56
2023/07/08 11:09:35;;;;;;;;;10.00;10.00;;;;;29.03;35.29;100154.63;6299018;20;3511735;-51
2023/07/08 11:12:39;;;;;;;;;13.00;12.33;;;;;28.07;37.60;100148.69;6271780;20;2483750;-50
2023/07/08 11:15:35;;;;;;;;;11.00;11.00;;;;;28.22;36.30;100150.34;6303119;20;2483670;-52
2023/07/08 11:18:33;;;;;;;;;15.00;12.00;;;;;29.25;35.18;100150.75;6305475;20;2802493;-53
2023/07/08 11:21:10;;;;;;;;;10.00;10.00;;;;;29.64;35.19;100154.75;6305932;20;2483634;-55